createdAt,value
2022-09-26T00:01:44.082Z,19.95
2022-09-26T00:04:27.931Z,21.62
2022-09-26T00:06:58.618Z,23.02
2022-09-26T00:09:27.982Z,22.13
2022-09-26T00:11:55.817Z,20.20
2022-09-26T00:14:28.310Z,22.93
2022-09-26T00:16:56.760Z,22.20
2022-09-26T00:19:24.955Z,23.63
2022-09-26T00:21:52.852Z,21.52
2022-09-26T00:24:22.315Z,24.77
2022-09-26T00:26:51.652Z,24.87
2022-09-26T00:29:20.661Z,22.10
2022-09-26T00:31:49.391Z,23.45
2022-09-26T00:34:19.474Z,20.60
2022-09-26T00:36:52.832Z,21.47
2022-09-26T00:39:20.450Z,20.60
2022-09-26T00:41:50.140Z,22.25
2022-09-26T00:44:46.339Z,22.17
2022-09-26T00:47:20.928Z,21.63
2022-09-26T00:49:57.009Z,24.00
2022-09-26T00:52:29.219Z,24.20
2022-09-26T00:54:59.008Z,22.90
2022-09-26T00:57:37.422Z,22.73
2022-09-26T01:00:10.081Z,22.00
2022-09-26T01:02:42.893Z,22.42
2022-09-26T01:05:13.488Z,23.60
2022-09-26T01:07:41.058Z,22.30
2022-09-26T01:10:09.966Z,23.00
2022-09-26T01:12:39.674Z,22.50
2022-09-26T01:15:09.232Z,22.03
2022-09-26T01:17:42.636Z,24.30
2022-09-26T01:20:15.947Z,24.08
2022-09-26T01:23:06.711Z,24.55
2022-09-26T01:26:05.838Z,22.62
2022-09-26T01:29:01.057Z,22.35
2022-09-26T01:32:11.935Z,23.50
2022-09-26T01:34:50.946Z,21.80
2022-09-26T01:37:34.824Z,23.37
2022-09-26T01:40:32.710Z,23.73
2022-09-26T01:43:20.612Z,24.15
2022-09-26T01:45:57.160Z,22.62
2022-09-26T01:48:37.716Z,23.58
2022-09-26T01:51:09.933Z,24.50
2022-09-26T01:53:51.415Z,24.40
2022-09-26T01:56:22.495Z,24.92
2022-09-26T01:58:55.495Z,25.00
2022-09-26T02:01:25.934Z,24.23
2022-09-26T02:04:05.016Z,24.30
2022-09-26T02:06:38.480Z,23.58
2022-09-26T02:09:33.595Z,25.20
2022-09-26T02:12:07.129Z,23.70
2022-09-26T02:14:38.528Z,25.85
2022-09-26T02:17:15.538Z,25.02
2022-09-26T02:19:43.678Z,24.15
2022-09-26T02:22:11.341Z,27.70
2022-09-26T02:24:44.254Z,27.20
2022-09-26T02:27:13.313Z,26.75
2022-09-26T02:29:41.310Z,28.12
2022-09-26T02:32:17.221Z,27.98
2022-09-26T02:34:47.620Z,26.60
2022-09-26T02:37:21.004Z,26.70
2022-09-26T02:39:50.600Z,27.35
2022-09-26T02:42:28.679Z,26.17
2022-09-26T02:45:16.036Z,27.98
2022-09-26T02:48:21.166Z,26.62
2022-09-26T02:51:07.854Z,23.23
2022-09-26T02:54:02.879Z,23.60
2022-09-26T02:57:04.792Z,22.92
2022-09-26T03:00:04.083Z,25.58
2022-09-26T03:02:50.703Z,24.80
2022-09-26T03:05:23.788Z,23.67
2022-09-26T03:08:07.886Z,24.40
2022-09-26T03:10:37.614Z,25.12
2022-09-26T03:13:14.827Z,22.20
2022-09-26T03:15:54.253Z,22.00
2022-09-26T03:18:28.657Z,22.52
2022-09-26T03:20:57.321Z,23.65
2022-09-26T03:23:28.391Z,24.70
2022-09-26T03:26:03.596Z,23.25
2022-09-26T03:28:37.870Z,24.98
2022-09-26T03:31:22.435Z,22.30
2022-09-26T03:33:52.629Z,23.38
2022-09-26T03:36:23.832Z,23.08
2022-09-26T03:38:52.600Z,23.63
2022-09-26T03:41:27.099Z,24.02
2022-09-26T03:44:25.871Z,24.17
2022-09-26T03:46:57.556Z,23.27
2022-09-26T03:49:26.266Z,23.10
2022-09-26T03:51:55.941Z,21.98
2022-09-26T03:54:29.046Z,23.45
2022-09-26T03:57:00.659Z,23.17
2022-09-26T03:59:37.416Z,23.02
2022-09-26T04:02:13.315Z,22.00
2022-09-26T04:04:45.561Z,22.65
2022-09-26T04:07:16.815Z,24.90
2022-09-26T04:09:46.042Z,25.33
2022-09-26T04:12:15.651Z,24.23
2022-09-26T04:14:48.592Z,24.93
2022-09-26T04:17:20.794Z,25.33
2022-09-26T04:19:51.549Z,25.55
2022-09-26T04:22:19.673Z,27.92
2022-09-26T04:24:50.069Z,26.15
2022-09-26T04:27:22.255Z,25.83
2022-09-26T04:29:51.145Z,27.48
2022-09-26T04:32:22.618Z,27.25
2022-09-26T04:35:10.088Z,26.65
2022-09-26T04:37:42.407Z,25.83
2022-09-26T04:40:14.803Z,32.08
2022-09-26T04:42:49.840Z,27.00
2022-09-26T04:45:19.073Z,26.40
2022-09-26T04:47:48.968Z,26.73
2022-09-26T04:50:22.043Z,26.65
2022-09-26T04:53:07.082Z,25.27
2022-09-26T04:55:38.229Z,27.45
2022-09-26T04:58:06.886Z,26.30
2022-09-26T05:00:35.284Z,25.90
2022-09-26T05:03:08.371Z,27.45
2022-09-26T05:05:37.679Z,26.65
2022-09-26T05:08:07.727Z,28.20
2022-09-26T05:10:36.115Z,28.83
2022-09-26T05:13:06.413Z,25.92
2022-09-26T05:15:40.018Z,26.30
2022-09-26T05:18:08.678Z,25.33
2022-09-26T05:20:39.352Z,27.52
2022-09-26T05:23:10.689Z,28.42
2022-09-26T05:25:59.125Z,28.90
2022-09-26T05:28:29.064Z,27.33
2022-09-26T05:30:57.670Z,30.45
2022-09-26T05:33:35.109Z,30.52
2022-09-26T05:36:03.672Z,30.83
2022-09-26T05:38:36.393Z,32.90
2022-09-26T05:41:04.468Z,34.08
2022-09-26T05:43:33.858Z,35.95
2022-09-26T05:46:05.608Z,34.33
2022-09-26T05:48:36.681Z,37.10
2022-09-26T05:51:16.766Z,33.53
2022-09-26T05:53:46.541Z,37.67
2022-09-26T05:56:24.889Z,34.15
2022-09-26T05:58:55.264Z,35.17
2022-09-26T06:01:24.438Z,37.27
2022-09-26T06:03:55.003Z,36.33
2022-09-26T06:06:23.910Z,37.33
2022-09-26T06:08:54.643Z,37.50
2022-09-26T06:11:30.991Z,39.60
2022-09-26T06:14:01.368Z,38.30
2022-09-26T06:16:29.413Z,37.58
2022-09-26T06:19:00.208Z,37.28
2022-09-26T06:21:30.029Z,38.08
2022-09-26T06:24:00.448Z,36.22
2022-09-26T06:26:32.263Z,36.83
2022-09-26T06:29:00.950Z,34.33
2022-09-26T06:31:41.166Z,34.55
2022-09-26T06:34:16.077Z,37.10
2022-09-26T06:36:47.250Z,36.53
2022-09-26T06:39:21.202Z,37.47
2022-09-26T06:41:53.272Z,34.50
2022-09-26T06:44:26.511Z,33.55
2022-09-26T06:47:00.971Z,38.53
2022-09-26T06:49:49.170Z,38.20
2022-09-26T06:52:23.049Z,34.47
2022-09-26T06:54:56.851Z,35.97
2022-09-26T06:57:24.949Z,35.85
2022-09-26T06:59:54.076Z,36.75
2022-09-26T07:02:22.079Z,35.50
2022-09-26T07:04:52.611Z,36.22
2022-09-26T07:07:20.766Z,37.60
2022-09-26T07:09:56.681Z,37.72
2022-09-26T07:12:31.453Z,37.10
2022-09-26T07:15:02.392Z,34.97
2022-09-26T07:17:33.104Z,34.70
2022-09-26T07:20:03.555Z,33.90
2022-09-26T07:22:48.774Z,29.17
2022-09-26T07:25:18.960Z,32.40
2022-09-26T07:27:58.991Z,30.62
2022-09-26T07:30:28.449Z,28.92
2022-09-26T07:33:03.847Z,29.40
2022-09-26T07:35:36.552Z,27.40
2022-09-26T07:38:06.630Z,28.12
2022-09-26T07:40:34.815Z,28.17
2022-09-26T07:43:19.820Z,25.00
2022-09-26T07:46:33.564Z,22.67
2022-09-26T07:49:22.272Z,20.40
2022-09-26T07:51:56.765Z,21.83
2022-09-26T07:54:25.904Z,20.00
2022-09-26T07:56:54.771Z,20.12
2022-09-26T07:59:23.573Z,21.25
2022-09-26T08:01:58.351Z,22.23
2022-09-26T08:04:32.119Z,19.12
2022-09-26T08:07:00.395Z,20.13
2022-09-26T08:09:28.685Z,18.43
2022-09-26T08:11:57.643Z,18.73
2022-09-26T08:14:27.238Z,18.62
2022-09-26T08:16:56.055Z,20.95
2022-09-26T08:19:25.787Z,18.17
2022-09-26T08:21:53.640Z,20.10
2022-09-26T08:24:21.568Z,19.25
2022-09-26T08:26:50.074Z,19.70
2022-09-26T08:29:19.863Z,20.35
2022-09-26T08:31:51.460Z,21.27
2022-09-26T08:34:25.386Z,18.92
2022-09-26T08:36:55.676Z,20.98
2022-09-26T08:39:24.096Z,18.85
2022-09-26T08:42:34.398Z,17.73
2022-09-26T08:45:33.131Z,17.90
2022-09-26T08:48:15.411Z,17.83
2022-09-26T08:50:52.062Z,18.80
2022-09-26T08:53:24.554Z,18.47
2022-09-26T08:55:53.824Z,17.23
2022-09-26T08:58:29.213Z,17.87
2022-09-26T09:01:02.860Z,16.45
2022-09-26T09:03:57.613Z,16.98
2022-09-26T09:06:27.191Z,15.73
2022-09-26T09:08:56.673Z,17.03
2022-09-26T09:11:30.899Z,16.67
2022-09-26T09:14:11.558Z,15.15
2022-09-26T09:17:00.811Z,14.35
2022-09-26T09:19:49.017Z,14.13
2022-09-26T09:22:40.961Z,14.30
2022-09-26T09:25:22.008Z,14.95
2022-09-26T09:28:16.254Z,13.30
2022-09-26T09:30:55.094Z,14.35
2022-09-26T09:33:37.127Z,15.40
2022-09-26T09:36:10.257Z,13.80
2022-09-26T09:38:39.672Z,14.45
2022-09-26T09:41:42.963Z,13.65
2022-09-26T09:44:26.695Z,13.77
2022-09-26T09:46:54.206Z,14.43
2022-09-26T09:49:23.859Z,15.38
2022-09-26T09:52:22.058Z,14.43
2022-09-26T09:55:11.686Z,13.85
2022-09-26T09:57:57.097Z,14.55
2022-09-26T10:00:27.689Z,12.98
2022-09-26T10:03:14.931Z,13.80
2022-09-26T10:05:47.461Z,13.00
2022-09-26T10:08:27.819Z,11.53
2022-09-26T10:11:34.779Z,12.65
2022-09-26T10:14:07.845Z,11.10
2022-09-26T10:17:12.209Z,12.65
2022-09-26T10:19:45.085Z,11.80
2022-09-26T10:22:27.347Z,11.30
2022-09-26T10:25:16.835Z,12.73
2022-09-26T10:27:50.792Z,12.05
2022-09-26T10:30:18.871Z,11.80
2022-09-26T10:32:50.807Z,11.40
2022-09-26T10:35:25.503Z,10.60
2022-09-26T10:38:06.402Z,10.60
2022-09-26T10:40:51.264Z,10.40
2022-09-26T10:43:31.902Z,11.02
2022-09-26T10:46:06.519Z,10.60
2022-09-26T10:49:02.437Z,9.32
2022-09-26T10:51:42.361Z,9.60
2022-09-26T10:54:13.565Z,9.43
2022-09-26T10:56:46.353Z,8.73
2022-09-26T10:59:18.683Z,7.35
2022-09-26T11:01:55.947Z,7.90
2022-09-26T11:04:45.609Z,8.98
2022-09-26T11:07:24.899Z,8.18
2022-09-26T11:10:00.006Z,9.27
2022-09-26T11:12:31.717Z,8.32
2022-09-26T11:15:01.615Z,8.38
2022-09-26T11:17:48.873Z,7.95
2022-09-26T11:20:35.583Z,8.90
2022-09-26T11:23:35.023Z,9.25
2022-09-26T11:26:27.968Z,6.57
2022-09-26T11:29:20.581Z,7.50
2022-09-26T11:31:48.941Z,6.95
2022-09-26T11:34:27.862Z,6.07
2022-09-26T11:37:10.600Z,7.68
2022-09-26T11:40:10.143Z,7.05
2022-09-26T11:42:53.050Z,7.57
2022-09-26T11:45:53.652Z,7.82
2022-09-26T11:48:23.681Z,6.78
2022-09-26T11:50:59.028Z,6.97
2022-09-26T11:54:06.865Z,7.97
2022-09-26T11:57:16.126Z,7.07
2022-09-26T12:00:02.667Z,8.40
2022-09-26T12:03:05.693Z,6.60
2022-09-26T12:05:57.161Z,7.30
2022-09-26T12:08:47.385Z,7.07
2022-09-26T12:11:45.886Z,8.17
2022-09-26T12:14:54.286Z,8.25
2022-09-26T12:17:44.057Z,7.62
2022-09-26T12:20:53.360Z,5.87
2022-09-26T12:23:35.155Z,6.28
2022-09-26T12:26:34.870Z,7.55
2022-09-26T12:29:05.972Z,10.70
2022-09-26T12:31:50.767Z,9.43
2022-09-26T12:34:30.301Z,7.32
2022-09-26T12:37:25.414Z,6.80
2022-09-26T12:40:01.812Z,8.73
2022-09-26T12:42:49.511Z,8.13
2022-09-26T12:46:04.684Z,7.75
2022-09-26T12:49:14.813Z,8.70
2022-09-26T12:51:52.917Z,8.70
2022-09-26T12:54:33.639Z,7.22
2022-09-26T12:57:53.220Z,7.15
2022-09-26T13:00:25.450Z,7.18
2022-09-26T13:03:28.384Z,7.60
2022-09-26T13:06:08.734Z,7.68
2022-09-26T13:08:57.597Z,7.68
2022-09-26T13:11:48.563Z,9.63
2022-09-26T13:14:28.276Z,7.22
2022-09-26T13:17:10.674Z,6.40
2022-09-26T13:20:17.660Z,7.82
2022-09-26T13:22:57.018Z,9.77
2022-09-26T13:25:56.727Z,9.38
2022-09-26T13:28:55.488Z,12.23
2022-09-26T13:31:56.259Z,8.00
2022-09-26T13:34:38.113Z,9.60
2022-09-26T13:37:21.524Z,9.53
2022-09-26T13:40:03.652Z,11.97
2022-09-26T13:42:45.296Z,11.32
2022-09-26T13:45:25.690Z,12.82
2022-09-26T13:48:02.962Z,13.13
2022-09-26T13:50:34.063Z,10.20
2022-09-26T13:53:18.121Z,12.85
2022-09-26T13:56:05.829Z,9.65
2022-09-26T13:58:40.396Z,9.10
2022-09-26T14:01:28.007Z,9.63
2022-09-26T14:04:21.484Z,12.30
2022-09-26T14:07:29.913Z,13.98
2022-09-26T14:10:12.391Z,18.83
2022-09-26T14:13:08.476Z,10.25
2022-09-26T14:15:48.573Z,10.60
2022-09-26T14:18:28.294Z,9.65
2022-09-26T14:20:55.977Z,9.23
2022-09-26T14:24:12.958Z,8.70
2022-09-26T14:26:45.029Z,8.15
2022-09-26T14:29:35.873Z,8.00
2022-09-26T14:32:12.572Z,8.52
2022-09-26T14:34:57.670Z,10.20
2022-09-26T14:37:30.629Z,9.88
2022-09-26T14:40:10.304Z,7.07
2022-09-26T14:42:47.316Z,6.87
2022-09-26T14:45:25.753Z,7.80
2022-09-26T14:48:15.480Z,6.37
2022-09-26T14:50:59.360Z,6.60
2022-09-26T14:54:01.302Z,9.13
2022-09-26T14:56:32.961Z,7.75
2022-09-26T14:59:17.219Z,6.65
2022-09-26T15:01:46.956Z,6.97
2022-09-26T15:04:31.519Z,7.95
2022-09-26T15:07:06.350Z,8.47
2022-09-26T15:09:57.148Z,6.50
2022-09-26T15:12:48.549Z,7.62
2022-09-26T15:15:56.564Z,6.00
2022-09-26T15:18:27.200Z,6.70
2022-09-26T15:21:04.187Z,6.45
2022-09-26T15:23:45.776Z,6.90
2022-09-26T15:26:25.757Z,6.32
2022-09-26T15:28:55.169Z,5.80
2022-09-26T15:31:25.932Z,5.82
2022-09-26T15:34:04.608Z,6.28
2022-09-26T15:36:38.764Z,6.82
2022-09-26T15:39:36.752Z,6.50
2022-09-26T15:42:37.678Z,7.43
2022-09-26T15:45:30.637Z,8.13
2022-09-26T15:48:24.073Z,7.90
2022-09-26T15:50:59.170Z,15.52
2022-09-26T15:53:55.671Z,13.95
2022-09-26T15:56:35.027Z,13.05
2022-09-26T15:59:03.737Z,14.53
2022-09-26T16:01:35.029Z,11.00
2022-09-26T16:04:14.326Z,10.05
2022-09-26T16:07:07.855Z,9.70
2022-09-26T16:09:40.911Z,21.67
2022-09-26T16:12:15.593Z,24.37
2022-09-26T16:14:50.252Z,21.48
2022-09-26T16:17:34.996Z,23.35
2022-09-26T16:20:25.765Z,21.10
2022-09-26T16:23:05.669Z,17.77
2022-09-26T16:25:42.709Z,17.13
2022-09-26T16:28:11.343Z,19.87
2022-09-26T16:30:42.581Z,22.70
2022-09-26T16:33:25.990Z,26.47
2022-09-26T16:35:54.513Z,20.42
2022-09-26T16:38:36.431Z,17.87
2022-09-26T16:41:10.405Z,13.35
2022-09-26T16:43:39.199Z,12.50
2022-09-26T16:46:19.521Z,11.43
2022-09-26T16:48:56.941Z,11.60
2022-09-26T16:51:41.655Z,14.20
2022-09-26T16:54:19.962Z,13.88
2022-09-26T16:56:52.960Z,20.10
2022-09-26T16:59:32.934Z,18.50
2022-09-26T17:02:11.018Z,17.20
2022-09-26T17:04:40.222Z,15.23
2022-09-26T17:07:13.127Z,12.85
2022-09-26T17:09:43.604Z,12.88
2022-09-26T17:12:25.010Z,14.55
2022-09-26T17:14:57.300Z,9.85
2022-09-26T17:17:26.041Z,17.35
2022-09-26T17:19:59.547Z,20.08
2022-09-26T17:22:28.534Z,16.87
2022-09-26T17:24:56.516Z,16.23
2022-09-26T17:27:29.054Z,16.93
2022-09-26T17:30:01.004Z,15.30
2022-09-26T17:32:37.556Z,15.27
2022-09-26T17:35:20.171Z,15.20
2022-09-26T17:37:48.191Z,15.40
2022-09-26T17:40:24.679Z,13.18
2022-09-26T17:42:57.212Z,12.65
2022-09-26T17:45:37.862Z,14.82
2022-09-26T17:48:27.173Z,13.87
2022-09-26T17:51:03.069Z,14.55
2022-09-26T17:53:38.918Z,11.50
2022-09-26T17:56:13.145Z,10.60
2022-09-26T17:59:00.261Z,12.80
2022-09-26T18:01:40.780Z,12.57
2022-09-26T18:04:13.508Z,12.68
2022-09-26T18:06:43.381Z,15.48
2022-09-26T18:09:18.981Z,16.35
2022-09-26T18:12:00.135Z,25.85
2022-09-26T18:14:39.151Z,38.13
2022-09-26T18:17:18.704Z,35.20
2022-09-26T18:20:11.385Z,34.47
2022-09-26T18:22:41.477Z,28.92
2022-09-26T18:25:18.809Z,22.50
2022-09-26T18:27:53.803Z,21.58
2022-09-26T18:30:26.554Z,22.10
2022-09-26T18:32:56.718Z,21.67
2022-09-26T18:35:51.260Z,19.90
2022-09-26T18:38:40.673Z,22.10
2022-09-26T18:41:30.811Z,21.67
2022-09-26T18:44:19.558Z,28.80
2022-09-26T18:47:01.857Z,19.02
2022-09-26T18:49:45.391Z,21.70
2022-09-26T18:52:46.510Z,19.42
2022-09-26T18:55:43.393Z,17.27
2022-09-26T18:58:31.963Z,14.90
2022-09-26T19:01:30.056Z,16.17
2022-09-26T19:04:04.717Z,14.63
2022-09-26T19:06:40.270Z,14.95
2022-09-26T19:12:32.764Z,14.20
2022-09-26T19:15:12.710Z,18.47
2022-09-26T19:17:45.024Z,16.20
2022-09-26T19:20:16.670Z,16.25
2022-09-26T19:22:46.087Z,14.13
2022-09-26T19:25:16.220Z,14.10
2022-09-26T19:27:57.656Z,17.12
2022-09-26T19:30:27.841Z,14.75
2022-09-26T19:32:57.333Z,14.85
2022-09-26T19:35:34.735Z,14.63
2022-09-26T19:38:07.755Z,17.60
2022-09-26T19:40:38.633Z,16.85
2022-09-26T19:43:13.670Z,15.70
2022-09-26T19:45:58.845Z,15.93
2022-09-26T19:48:48.258Z,16.20
2022-09-26T19:51:23.052Z,16.40
2022-09-26T19:53:53.179Z,22.80
2022-09-26T19:56:26.155Z,22.45
2022-09-26T19:58:54.696Z,20.58
2022-09-26T20:01:28.573Z,19.15
2022-09-26T20:03:59.958Z,21.10
2022-09-26T20:06:37.278Z,30.92
2022-09-26T20:09:18.248Z,32.53
2022-09-26T20:11:52.019Z,26.23
2022-09-26T20:14:23.971Z,25.62
2022-09-26T20:17:05.146Z,22.90
2022-09-26T20:19:43.754Z,20.92
2022-09-26T20:22:25.100Z,31.48
2022-09-26T20:24:57.887Z,29.37
2022-09-26T20:27:36.312Z,25.45
2022-09-26T20:30:39.566Z,25.63
2022-09-26T20:33:24.062Z,21.07
2022-09-26T20:36:05.692Z,16.67
2022-09-26T20:38:48.659Z,15.52
2022-09-26T20:41:31.433Z,16.17
2022-09-26T20:44:22.132Z,15.77
2022-09-26T20:46:54.984Z,14.47
2022-09-26T20:49:54.024Z,16.73
2022-09-26T20:52:32.195Z,14.57
2022-09-26T20:55:02.958Z,15.20
2022-09-26T20:57:35.062Z,16.23
2022-09-26T21:00:17.975Z,17.17
2022-09-26T21:02:54.349Z,14.67
2022-09-26T21:05:24.919Z,14.35
2022-09-26T21:07:54.494Z,14.80
2022-09-26T21:10:29.044Z,21.17
2022-09-26T21:12:57.913Z,15.65
2022-09-26T21:15:27.888Z,15.77
2022-09-26T21:17:55.652Z,15.68
2022-09-26T21:20:29.985Z,17.65
2022-09-26T21:22:58.270Z,14.05
2022-09-26T21:25:31.201Z,15.30
2022-09-26T21:28:06.591Z,15.43
2022-09-26T21:30:34.446Z,14.20
2022-09-26T21:33:01.937Z,15.00
2022-09-26T21:35:31.159Z,18.52
2022-09-26T21:37:59.700Z,16.12
2022-09-26T21:40:29.871Z,16.35
2022-09-26T21:43:02.776Z,18.75
2022-09-26T21:45:34.054Z,19.10
2022-09-26T21:48:01.662Z,16.95
2022-09-26T21:50:29.379Z,17.90
2022-09-26T21:53:01.838Z,21.33
2022-09-26T21:55:33.979Z,18.30
2022-09-26T21:58:07.463Z,18.58
2022-09-26T22:00:35.125Z,17.98
2022-09-26T22:03:02.831Z,20.52
2022-09-26T22:05:31.011Z,18.50
2022-09-26T22:07:58.964Z,18.75
2022-09-26T22:10:29.392Z,17.08
2022-09-26T22:12:57.063Z,17.95
2022-09-26T22:15:24.581Z,16.00
2022-09-26T22:17:53.130Z,16.37
2022-09-26T22:20:21.898Z,17.05
2022-09-26T22:22:50.810Z,19.15
2022-09-26T22:25:21.542Z,20.70
2022-09-26T22:27:48.943Z,18.75
2022-09-26T22:30:19.372Z,17.73
2022-09-26T22:32:47.145Z,14.45
2022-09-26T22:35:15.136Z,16.62
2022-09-26T22:37:42.617Z,16.20
2022-09-26T22:40:10.600Z,16.10
2022-09-26T22:42:40.514Z,16.77
2022-09-26T22:45:11.678Z,17.20
2022-09-26T22:47:39.403Z,16.40
2022-09-26T22:50:07.133Z,16.57
2022-09-26T22:52:34.557Z,20.08
2022-09-26T22:55:05.869Z,15.45
2022-09-26T22:57:36.046Z,15.73
2022-09-26T23:00:04.987Z,14.95
2022-09-26T23:02:32.441Z,16.98
2022-09-26T23:04:59.884Z,17.85
2022-09-26T23:07:27.598Z,16.92
2022-09-26T23:09:55.048Z,17.58
2022-09-26T23:12:22.621Z,16.63
2022-09-26T23:14:50.336Z,17.50
2022-09-26T23:17:17.849Z,17.20
2022-09-26T23:19:45.488Z,15.40
2022-09-26T23:22:13.755Z,15.35
2022-09-26T23:24:41.162Z,15.55
2022-09-26T23:27:08.632Z,19.45
2022-09-26T23:29:37.054Z,18.10
2022-09-26T23:32:10.698Z,17.20
2022-09-26T23:34:38.386Z,18.00
2022-09-26T23:37:05.795Z,16.00
2022-09-26T23:39:35.498Z,15.52
2022-09-26T23:42:03.544Z,14.73
2022-09-26T23:44:32.559Z,15.38
2022-09-26T23:47:04.275Z,17.55
2022-09-26T23:49:32.006Z,16.35
2022-09-26T23:51:59.529Z,15.50
2022-09-26T23:54:27.388Z,14.27
2022-09-26T23:56:55.962Z,14.25
2022-09-26T23:59:23.385Z,16.98
